Terminal Aerodrome Forecast
Issued by NWS Louisville, KY

Home | Current Version | Previous Version | Text Only | Print | Product List | Glossary On
Versions: 1 2 3 4 5 6 7 8 9 10 11 12 13 14 15 16 17 18 19 20 21
000
FTUS43 KLMK 261121
TAFLEX
TAF
KLEX 261121Z 2612/2712 22006KT P6SM FEW200
     FM261500 23008KT P6SM FEW040 FEW180
     FM262300 19006KT P6SM SCT060 SCT150
     FM270600 21005KT P6SM BKN035=

USA.gov is the U.S. government's official web portal to all federal, state and local government web resources and services.